Time;durP1;ratioP1;P1;durP2;ratioP2;P2;SDS_P1;SDS_P2;PMS_P1;PMS_P2;Temp;Humidity;BMP_temperature;BMP_pressure;BME280_temperature;BME280_humidity;BME280_pressure;Samples;Min_cycle;Max_cycle;Signal;HPM_P1;HPM_P2
2023/06/11 00:02:24;;;;;;;1.10;1.10;;;23.60;99.90;;;;;;5052195;28;20247;-63
2023/06/11 00:04:51;;;;;;;1.20;1.20;;;23.60;99.90;;;;;;5051888;28;20211;-62
2023/06/11 00:07:18;;;;;;;1.00;1.00;;;23.60;99.90;;;;;;5051849;28;20224;-63
2023/06/11 00:09:45;;;;;;;1.00;1.00;;;23.60;99.90;;;;;;5051575;28;20214;-63
2023/06/11 00:12:12;;;;;;;0.90;0.90;;;23.60;99.90;;;;;;5052054;28;20227;-63
2023/06/11 00:14:39;;;;;;;0.95;0.95;;;23.60;99.90;;;;;;5051990;28;20214;-64
2023/06/11 00:17:07;;;;;;;0.93;0.93;;;23.50;99.90;;;;;;5051269;28;20195;-62
2023/06/11 00:19:34;;;;;;;1.10;1.10;;;23.50;99.90;;;;;;5051131;28;20204;-64
2023/06/11 00:22:02;;;;;;;1.00;1.00;;;23.40;99.90;;;;;;5051294;28;20228;-64
2023/06/11 00:24:30;;;;;;;1.00;1.00;;;23.20;99.90;;;;;;5051276;28;20418;-64
2023/06/11 00:26:59;;;;;;;1.10;1.10;;;23.20;99.90;;;;;;5051204;28;20223;-64
2023/06/11 00:29:27;;;;;;;1.17;1.17;;;23.10;99.90;;;;;;5050299;28;20690;-64
2023/06/11 00:31:54;;;;;;;1.05;1.05;;;23.10;99.90;;;;;;5051097;28;20236;-65
2023/06/11 00:34:22;;;;;;;1.10;1.10;;;23.00;99.90;;;;;;5051280;28;20203;-65
2023/06/11 00:36:49;;;;;;;1.08;1.08;;;23.00;99.90;;;;;;5051300;28;20204;-64
2023/06/11 00:39:16;;;;;;;1.10;1.10;;;22.90;99.90;;;;;;5046946;28;20223;-65
2023/06/11 00:41:45;;;;;;;1.10;1.10;;;22.90;99.90;;;;;;5050350;28;20583;-62
2023/06/11 00:44:17;;;;;;;1.10;1.10;;;22.90;99.90;;;;;;5031267;28;20240;-64
2023/06/11 00:46:44;;;;;;;1.15;1.15;;;22.90;99.90;;;;;;5049458;28;20239;-63
2023/06/11 00:49:12;;;;;;;1.00;1.00;;;22.90;99.90;;;;;;5044508;28;20200;-64
2023/06/11 00:51:42;;;;;;;1.00;1.00;;;22.90;99.90;;;;;;5045422;28;20227;-63
2023/06/11 00:54:12;;;;;;;0.90;0.90;;;22.90;99.90;;;;;;5047654;28;20625;-63
2023/06/11 00:56:43;;;;;;;1.00;1.00;;;22.90;99.90;;;;;;5051004;28;20250;-63
2023/06/11 00:59:11;;;;;;;1.05;1.05;;;22.80;99.90;;;;;;5051413;28;20250;-63
2023/06/11 01:01:43;;;;;;;1.02;1.02;;;22.70;99.90;;;;;;5051528;28;20223;-63
2023/06/11 01:04:17;;;;;;;1.05;1.05;;;22.70;99.90;;;;;;5050573;28;20208;-63
2023/06/11 01:06:49;;;;;;;1.02;1.02;;;22.70;99.90;;;;;;5050978;28;20222;-62
2023/06/11 01:09:19;;;;;;;1.20;1.20;;;22.70;99.90;;;;;;5046808;28;20204;-63
2023/06/11 01:11:48;;;;;;;1.20;1.20;;;22.70;99.90;;;;;;5051819;28;20306;-63
2023/06/11 01:14:16;;;;;;;1.10;1.10;;;22.60;99.90;;;;;;5054612;28;20210;-64
2023/06/11 01:16:48;;;;;;;1.00;1.00;;;22.50;99.90;;;;;;5051054;28;20243;-64
2023/06/11 01:19:38;;;;;;;1.10;1.10;;;22.60;99.90;;;;;;5053729;28;20200;-64
2023/06/11 01:22:15;;;;;;;1.00;1.00;;;22.50;99.90;;;;;;5050489;28;20232;-64
2023/06/11 01:24:59;;;;;;;1.10;1.10;;;22.50;99.90;;;;;;5050954;28;20203;-64
2023/06/11 01:27:42;;;;;;;1.10;1.10;;;22.50;99.90;;;;;;5055193;28;20227;-64
2023/06/11 01:30:17;;;;;;;1.10;1.10;;;22.50;99.90;;;;;;5050785;28;20217;-64
2023/06/11 01:32:45;;;;;;;0.98;0.98;;;22.50;99.90;;;;;;5064027;22;20258;-63
2023/06/11 01:35:13;;;;;;;1.10;1.10;;;22.50;99.90;;;;;;5050909;28;20286;-64
2023/06/11 01:37:44;;;;;;;1.00;1.00;;;22.50;99.90;;;;;;5051179;28;20214;-65
2023/06/11 01:40:12;;;;;;;1.08;1.08;;;22.50;99.90;;;;;;5052233;28;20218;-67
2023/06/11 01:42:39;;;;;;;1.17;1.17;;;22.40;99.90;;;;;;5054797;28;20767;-65
2023/06/11 01:45:07;;;;;;;1.23;1.23;;;22.40;99.90;;;;;;5055021;28;20203;-64
2023/06/11 01:47:36;;;;;;;1.00;1.00;;;22.40;99.90;;;;;;5055432;28;20269;-63
2023/06/11 01:50:04;;;;;;;1.00;1.00;;;22.40;99.90;;;;;;5054828;28;20199;-65
2023/06/11 01:52:31;;;;;;;0.98;0.98;;;22.40;99.90;;;;;;5056775;28;20283;-64
2023/06/11 01:54:58;;;;;;;1.00;1.00;;;22.40;99.90;;;;;;5056756;28;20200;-65
2023/06/11 01:57:24;;;;;;;1.15;1.15;;;22.40;99.90;;;;;;5055897;28;20205;-65
2023/06/11 01:59:51;;;;;;;0.95;0.95;;;22.30;99.90;;;;;;5055025;28;20711;-64
2023/06/11 02:02:18;;;;;;;1.00;1.00;;;22.30;99.90;;;;;;5055220;28;20314;-65
2023/06/11 02:04:46;;;;;;;1.00;1.00;;;22.20;99.90;;;;;;5055290;28;20192;-63
2023/06/11 02:07:13;;;;;;;1.20;1.10;;;22.10;99.90;;;;;;5054547;28;20741;-65
2023/06/11 02:09:40;;;;;;;1.00;1.00;;;22.10;99.90;;;;;;5054739;28;20330;-63
2023/06/11 02:12:08;;;;;;;1.00;1.00;;;22.10;99.90;;;;;;5054480;28;20224;-63
2023/06/11 02:14:35;;;;;;;0.90;0.90;;;22.10;99.90;;;;;;5053810;28;20849;-63
2023/06/11 02:17:01;;;;;;;1.00;1.00;;;22.00;99.90;;;;;;5054547;28;20720;-63
2023/06/11 02:19:28;;;;;;;1.02;1.02;;;22.00;99.90;;;;;;5054557;28;20654;-63
2023/06/11 02:21:56;;;;;;;1.17;1.17;;;22.00;99.90;;;;;;5054629;28;20311;-63
2023/06/11 02:24:23;;;;;;;1.10;1.10;;;21.90;99.90;;;;;;5054475;28;20212;-64
2023/06/11 02:26:50;;;;;;;1.00;1.00;;;21.90;99.90;;;;;;5054656;28;20265;-65
2023/06/11 02:29:17;;;;;;;1.10;1.10;;;21.80;99.90;;;;;;5054180;28;20493;-64
2023/06/11 02:31:44;;;;;;;1.00;1.00;;;21.80;99.90;;;;;;5054404;28;20192;-64
2023/06/11 02:34:11;;;;;;;1.10;1.10;;;21.80;99.90;;;;;;5054272;28;20223;-64
2023/06/11 02:36:38;;;;;;;1.10;1.10;;;21.70;99.90;;;;;;5054430;28;20651;-65
2023/06/11 02:39:06;;;;;;;1.20;1.20;;;21.70;99.90;;;;;;5054685;28;20210;-64
2023/06/11 02:41:33;;;;;;;1.33;1.20;;;21.70;99.90;;;;;;5056666;28;20307;-63
2023/06/11 02:44:00;;;;;;;1.30;1.30;;;21.60;99.90;;;;;;5054889;28;20244;-66
2023/06/11 02:46:26;;;;;;;1.17;1.17;;;21.60;99.90;;;;;;5054810;28;20702;-65
2023/06/11 02:48:53;;;;;;;1.20;1.20;;;21.40;99.90;;;;;;5055116;28;20223;-64
2023/06/11 02:51:20;;;;;;;1.20;1.20;;;21.40;99.90;;;;;;5055356;28;20214;-64
2023/06/11 02:53:47;;;;;;;1.10;1.10;;;21.30;99.90;;;;;;5059154;28;20238;-64
2023/06/11 02:56:15;;;;;;;1.10;1.10;;;21.20;99.90;;;;;;5064328;28;20290;-64
2023/06/11 02:58:42;;;;;;;1.05;1.05;;;21.20;99.90;;;;;;5059649;28;20208;-64
2023/06/11 03:01:09;;;;;;;1.10;1.10;;;21.10;99.90;;;;;;5054992;28;20214;-64
2023/06/11 03:03:35;;;;;;;1.30;1.30;;;21.00;99.90;;;;;;5055260;28;20230;-63
2023/06/11 03:06:02;;;;;;;1.20;1.20;;;21.10;99.90;;;;;;5054420;28;20207;-63
2023/06/11 03:08:29;;;;;;;1.30;1.30;;;21.10;99.90;;;;;;5054469;28;20219;-64
2023/06/11 03:10:56;;;;;;;1.20;1.20;;;21.00;99.90;;;;;;5054363;28;20208;-64
2023/06/11 03:13:24;;;;;;;1.00;1.00;;;21.00;99.90;;;;;;5060014;28;20318;-66
2023/06/11 03:15:51;;;;;;;1.10;1.10;;;21.00;99.90;;;;;;5058025;28;20204;-63
2023/06/11 03:18:18;;;;;;;1.00;1.00;;;20.90;99.90;;;;;;5053704;28;20623;-64
2023/06/11 03:20:44;;;;;;;1.17;1.17;;;20.90;99.90;;;;;;5053310;28;20208;-65
2023/06/11 03:23:11;;;;;;;1.30;1.30;;;20.90;99.90;;;;;;5053562;28;20804;-64
2023/06/11 03:25:38;;;;;;;1.15;1.08;;;20.90;99.90;;;;;;5060688;28;20665;-64
2023/06/11 03:28:05;;;;;;;1.13;1.13;;;20.80;99.90;;;;;;5056659;28;20243;-63
2023/06/11 03:30:33;;;;;;;1.10;1.10;;;20.70;99.90;;;;;;5053388;28;20200;-63
2023/06/11 03:33:00;;;;;;;1.10;1.10;;;20.70;99.90;;;;;;5053070;28;20338;-65
2023/06/11 03:35:27;;;;;;;1.13;1.13;;;20.60;99.90;;;;;;5053388;28;20204;-66
2023/06/11 03:37:54;;;;;;;1.10;1.10;;;20.60;99.90;;;;;;5053207;28;20208;-65
2023/06/11 03:40:20;;;;;;;1.20;1.20;;;20.40;99.90;;;;;;5052678;28;20200;-63
2023/06/11 03:42:47;;;;;;;1.30;1.30;;;20.30;99.90;;;;;;5052825;28;20234;-65
2023/06/11 03:45:14;;;;;;;1.25;1.25;;;20.10;99.90;;;;;;5052676;28;20735;-63
2023/06/11 03:47:42;;;;;;;1.20;1.20;;;20.10;99.90;;;;;;5052910;28;20207;-64
2023/06/11 03:50:10;;;;;;;1.30;1.30;;;19.90;99.90;;;;;;5052333;28;20673;-63
2023/06/11 03:52:37;;;;;;;1.20;1.20;;;19.90;99.90;;;;;;5052732;28;20227;-64
2023/06/11 03:55:04;;;;;;;1.20;1.20;;;19.90;99.90;;;;;;5052544;28;20207;-65
2023/06/11 03:57:31;;;;;;;1.20;1.20;;;19.90;99.90;;;;;;5052682;28;20212;-63
2023/06/11 03:59:58;;;;;;;1.20;1.20;;;19.80;99.90;;;;;;5052214;28;20200;-64
2023/06/11 04:02:26;;;;;;;1.30;1.30;;;19.80;99.90;;;;;;5052155;28;20232;-62
2023/06/11 04:04:54;;;;;;;1.20;1.20;;;19.70;99.90;;;;;;5052360;28;20257;-63
2023/06/11 04:07:21;;;;;;;1.15;1.15;;;19.80;99.90;;;;;;5054790;28;20200;-64
2023/06/11 04:09:48;;;;;;;1.25;1.25;;;19.80;99.90;;;;;;5052407;28;20223;-65
2023/06/11 04:12:15;;;;;;;1.55;1.45;;;19.80;99.90;;;;;;5052661;28;20238;-64
2023/06/11 04:14:42;;;;;;;1.20;1.20;;;19.80;99.90;;;;;;5052221;28;20239;-64
2023/06/11 04:17:10;;;;;;;1.48;1.40;;;19.70;99.90;;;;;;5052303;28;20207;-63
2023/06/11 04:19:36;;;;;;;1.27;1.27;;;19.60;99.90;;;;;;5052395;28;20599;-62
2023/06/11 04:22:05;;;;;;;1.23;1.23;;;19.60;99.90;;;;;;5052033;28;20314;-62
2023/06/11 04:24:32;;;;;;;1.40;1.40;;;19.60;99.90;;;;;;5050252;28;20690;-65
2023/06/11 04:26:59;;;;;;;1.20;1.20;;;19.50;99.90;;;;;;5052456;28;20200;-63
2023/06/11 04:29:29;;;;;;;1.20;1.20;;;19.50;99.90;;;;;;5054141;28;20227;-66
2023/06/11 04:31:56;;;;;;;2.13;2.03;;;19.50;99.90;;;;;;5052072;28;20238;-64
2023/06/11 04:34:29;;;;;;;1.27;1.27;;;19.60;99.90;;;;;;5052172;28;20235;-63
2023/06/11 04:36:55;;;;;;;1.20;1.20;;;19.60;99.90;;;;;;5052641;28;20204;-65
2023/06/11 04:39:24;;;;;;;1.30;1.30;;;19.70;99.90;;;;;;5051624;28;20694;-65
2023/06/11 04:41:51;;;;;;;1.20;1.20;;;19.70;99.90;;;;;;5052538;28;20234;-62
2023/06/11 04:44:20;;;;;;;1.30;1.30;;;19.80;99.90;;;;;;5054047;28;20211;-66
2023/06/11 04:46:47;;;;;;;1.20;1.20;;;19.80;99.90;;;;;;5059729;28;20204;-65
2023/06/11 04:49:20;;;;;;;1.30;1.30;;;19.90;99.90;;;;;;5052087;28;20693;-65
2023/06/11 04:51:48;;;;;;;1.48;1.45;;;19.90;99.90;;;;;;5054252;28;20184;-66
2023/06/11 04:54:17;;;;;;;1.38;1.38;;;19.90;99.90;;;;;;5053346;28;20583;-65
2023/06/11 04:56:45;;;;;;;1.20;1.20;;;19.90;99.90;;;;;;5052671;28;20674;-64
2023/06/11 04:59:12;;;;;;;1.60;1.50;;;20.00;99.90;;;;;;5052692;28;20204;-65
2023/06/11 05:01:46;;;;;;;1.38;1.38;;;20.20;99.90;;;;;;5039532;28;20213;-65
2023/06/11 05:04:14;;;;;;;1.20;1.20;;;20.30;99.90;;;;;;5032030;28;20219;-66
2023/06/11 05:06:44;;;;;;;1.40;1.40;;;20.40;99.90;;;;;;5032066;28;20255;-64
2023/06/11 05:09:12;;;;;;;1.40;1.40;;;20.40;99.90;;;;;;5032071;28;20299;-64
2023/06/11 05:11:40;;;;;;;1.20;1.20;;;20.50;99.90;;;;;;5031813;28;20208;-66
2023/06/11 05:14:08;;;;;;;1.60;1.50;;;20.60;99.90;;;;;;5039546;28;20204;-65
2023/06/11 05:16:35;;;;;;;1.30;1.30;;;20.70;99.90;;;;;;5051911;28;20204;-65
2023/06/11 05:19:02;;;;;;;1.38;1.38;;;20.90;99.90;;;;;;5052741;28;20239;-65
2023/06/11 05:21:29;;;;;;;1.33;1.33;;;21.10;99.90;;;;;;5057601;28;20208;-66
2023/06/11 05:24:06;;;;;;;1.50;1.50;;;21.30;99.90;;;;;;5056567;28;20286;-65
2023/06/11 05:26:33;;;;;;;1.52;1.45;;;21.50;99.90;;;;;;5051855;28;20211;-64
2023/06/11 05:29:00;;;;;;;1.30;1.30;;;21.70;99.90;;;;;;5051320;28;20223;-62
2023/06/11 05:31:30;;;;;;;1.55;1.45;;;21.90;99.90;;;;;;5051416;28;20226;-66
2023/06/11 05:33:57;;;;;;;1.50;1.40;;;22.00;99.90;;;;;;5050967;28;20212;-63
2023/06/11 05:36:25;;;;;;;1.40;1.30;;;22.10;99.90;;;;;;5051057;28;20223;-64
2023/06/11 05:38:52;;;;;;;1.25;1.25;;;22.30;99.90;;;;;;5052356;28;20303;-63
2023/06/11 05:41:19;;;;;;;1.20;1.20;;;22.50;99.90;;;;;;5052291;28;20208;-64
2023/06/11 05:43:47;;;;;;;1.50;1.40;;;22.70;99.90;;;;;;5051986;28;20297;-65
2023/06/11 05:46:14;;;;;;;1.38;1.33;;;22.90;99.90;;;;;;5052603;28;20219;-64
2023/06/11 05:48:43;;;;;;;1.50;1.50;;;23.00;99.90;;;;;;5055230;28;20224;-66
2023/06/11 05:51:10;;;;;;;1.05;1.05;;;23.30;99.90;;;;;;5054446;28;20269;-66
2023/06/11 05:53:37;;;;;;;1.25;1.25;;;23.40;99.90;;;;;;5053842;28;20228;-64
2023/06/11 05:56:05;;;;;;;1.20;1.20;;;23.60;99.90;;;;;;5054355;28;20207;-64
2023/06/11 05:58:32;;;;;;;1.30;1.30;;;23.70;99.90;;;;;;5053151;28;20554;-65
2023/06/11 06:01:01;;;;;;;1.30;1.30;;;23.90;99.90;;;;;;5051113;28;20722;-65
2023/06/11 06:03:29;;;;;;;1.40;1.40;;;24.00;99.90;;;;;;5051952;28;20267;-65
2023/06/11 06:05:58;;;;;;;1.30;1.30;;;24.10;99.90;;;;;;5053046;28;20295;-66
2023/06/11 06:08:25;;;;;;;1.60;1.50;;;24.20;99.90;;;;;;5053004;28;20208;-66
2023/06/11 06:10:51;;;;;;;1.25;1.25;;;24.30;99.90;;;;;;5054619;28;20294;-65
2023/06/11 06:13:18;;;;;;;1.30;1.30;;;24.40;99.90;;;;;;5053065;28;20315;-65
2023/06/11 06:15:45;;;;;;;1.33;1.33;;;24.60;99.90;;;;;;5057042;28;20215;-63
2023/06/11 06:18:12;;;;;;;1.20;1.20;;;24.60;99.90;;;;;;5052511;28;20211;-65
2023/06/11 06:20:40;;;;;;;1.10;1.10;;;24.70;99.90;;;;;;5052253;28;20200;-66
2023/06/11 06:23:08;;;;;;;1.35;1.35;;;24.90;99.90;;;;;;5051876;28;20220;-66
2023/06/11 06:25:37;;;;;;;1.25;1.25;;;24.90;99.90;;;;;;5051113;28;20696;-67
2023/06/11 06:28:05;;;;;;;1.30;1.30;;;25.00;99.90;;;;;;5053808;28;20239;-66
2023/06/11 06:30:33;;;;;;;1.27;1.27;;;25.00;99.90;;;;;;5054284;28;20228;-62
2023/06/11 06:33:00;;;;;;;1.30;1.30;;;25.00;99.90;;;;;;5059236;28;20235;-65
2023/06/11 06:35:27;;;;;;;1.25;1.25;;;25.20;99.90;;;;;;5056626;28;20253;-67
2023/06/11 06:37:54;;;;;;;1.30;1.30;;;25.30;99.90;;;;;;5055014;28;20196;-64
2023/06/11 06:40:23;;;;;;;1.50;1.40;;;25.30;99.90;;;;;;5068350;28;20196;-64
2023/06/11 06:42:49;;;;;;;1.30;1.30;;;25.30;99.90;;;;;;5078563;28;20321;-65
2023/06/11 06:45:16;;;;;;;2.30;2.20;;;25.40;99.90;;;;;;5077173;28;20234;-64
2023/06/11 06:47:43;;;;;;;1.17;1.17;;;25.40;99.90;;;;;;5075331;28;20209;-64
2023/06/11 06:50:11;;;;;;;1.30;1.30;;;25.50;99.90;;;;;;5074443;28;20338;-66
2023/06/11 06:52:38;;;;;;;1.20;1.20;;;25.60;99.90;;;;;;5074619;28;20729;-66
2023/06/11 06:55:05;;;;;;;1.17;1.17;;;25.70;99.90;;;;;;5073985;28;20225;-63
2023/06/11 06:57:34;;;;;;;1.30;1.20;;;25.70;99.90;;;;;;5073869;28;20791;-66
2023/06/11 07:00:00;;;;;;;1.17;1.17;;;25.80;99.90;;;;;;5073616;28;20203;-65
2023/06/11 07:02:27;;;;;;;3.38;3.13;;;25.90;99.90;;;;;;5053742;28;20234;-65
2023/06/11 07:04:54;;;;;;;1.70;1.60;;;25.90;99.90;;;;;;5054135;28;20210;-65
2023/06/11 07:07:24;;;;;;;1.45;1.33;;;26.00;99.90;;;;;;5053968;28;20218;-65
2023/06/11 07:09:51;;;;;;;1.20;1.20;;;26.00;99.90;;;;;;5053419;28;20563;-64
2023/06/11 07:12:18;;;;;;;1.20;1.20;;;26.10;99.90;;;;;;5053553;28;20660;-64
2023/06/11 07:14:46;;;;;;;1.10;1.10;;;26.20;99.90;;;;;;5053694;28;20316;-67
2023/06/11 07:17:13;;;;;;;1.10;1.10;;;26.40;99.90;;;;;;5053415;28;20238;-63
2023/06/11 07:19:40;;;;;;;1.17;1.17;;;26.40;99.90;;;;;;5053371;28;20731;-63
2023/06/11 07:22:07;;;;;;;1.40;1.40;;;26.60;99.90;;;;;;5054036;28;20314;-66
2023/06/11 07:24:35;;;;;;;1.20;1.20;;;26.60;99.90;;;;;;5053811;28;20547;-63
2023/06/11 07:27:02;;;;;;;1.23;1.23;;;26.40;99.90;;;;;;5055315;28;20264;-63
2023/06/11 07:29:28;;;;;;;1.20;1.20;;;26.40;99.90;;;;;;5056165;28;20273;-64
2023/06/11 07:31:57;;;;;;;1.30;1.30;;;26.20;99.90;;;;;;5053087;28;20307;-63
2023/06/11 07:34:23;;;;;;;1.10;1.10;;;26.20;99.90;;;;;;5053295;28;20298;-64
2023/06/11 07:36:50;;;;;;;1.30;1.30;;;26.40;99.90;;;;;;5053387;28;20210;-64
2023/06/11 07:39:17;;;;;;;1.33;1.30;;;26.60;99.90;;;;;;5052597;28;20513;-66
2023/06/11 07:41:44;;;;;;;1.50;1.50;;;26.70;99.90;;;;;;5052706;28;20204;-65
2023/06/11 07:44:11;;;;;;;1.30;1.30;;;26.40;99.90;;;;;;5053159;28;20295;-66
2023/06/11 07:46:38;;;;;;;1.27;1.27;;;26.20;99.90;;;;;;5053119;28;20208;-66
2023/06/11 07:49:06;;;;;;;1.33;1.30;;;26.20;99.90;;;;;;5052548;28;20212;-63
2023/06/11 07:51:33;;;;;;;1.58;1.58;;;26.30;99.90;;;;;;5081631;22;20232;-63
2023/06/11 07:54:00;;;;;;;1.90;1.88;;;26.20;99.90;;;;;;5053009;28;20294;-63
2023/06/11 07:56:27;;;;;;;1.40;1.40;;;26.20;99.90;;;;;;5052963;28;20196;-63
2023/06/11 07:58:54;;;;;;;1.55;1.50;;;26.30;99.90;;;;;;5052332;28;20738;-63
2023/06/11 08:01:21;;;;;;;1.70;1.70;;;26.40;99.90;;;;;;5052743;28;20216;-63
2023/06/11 08:03:48;;;;;;;2.53;2.42;;;26.40;99.90;;;;;;5052915;28;20235;-63
2023/06/11 08:06:17;;;;;;;1.30;1.30;;;26.30;99.90;;;;;;5052529;28;20207;-63
2023/06/11 08:08:44;;;;;;;1.42;1.42;;;26.20;99.90;;;;;;5052512;28;20227;-63
2023/06/11 08:11:11;;;;;;;1.40;1.40;;;26.10;99.90;;;;;;5051788;28;20224;-64
2023/06/11 08:13:38;;;;;;;1.42;1.42;;;26.10;99.90;;;;;;5052492;28;20214;-63
2023/06/11 08:16:05;;;;;;;1.58;1.50;;;26.30;99.90;;;;;;5052294;28;20208;-63
2023/06/11 08:18:32;;;;;;;1.60;1.60;;;26.30;99.90;;;;;;5052365;28;20647;-64
2023/06/11 08:20:59;;;;;;;1.30;1.30;;;26.40;99.90;;;;;;5051076;28;20235;-62
2023/06/11 08:23:27;;;;;;;1.30;1.30;;;26.70;99.90;;;;;;5052671;28;20234;-63
2023/06/11 08:25:58;;;;;;;1.30;1.30;;;26.80;99.90;;;;;;5051454;28;20314;-63
2023/06/11 08:28:26;;;;;;;1.40;1.40;;;27.00;99.90;;;;;;5051562;28;20253;-63
2023/06/11 08:30:53;;;;;;;1.15;1.15;;;27.10;99.90;;;;;;5048088;28;20330;-63
2023/06/11 08:33:20;;;;;;;1.20;1.20;;;27.20;99.90;;;;;;5044809;28;20207;-64
2023/06/11 08:35:48;;;;;;;1.20;1.20;;;27.50;99.90;;;;;;5051504;28;20206;-63
2023/06/11 08:38:15;;;;;;;1.10;1.10;;;27.60;99.90;;;;;;5043147;28;20208;-64
2023/06/11 08:40:43;;;;;;;1.40;1.30;;;27.90;99.90;;;;;;5050246;28;20216;-63
2023/06/11 08:43:10;;;;;;;1.20;1.20;;;28.00;99.90;;;;;;5051159;28;20218;-64
2023/06/11 08:45:37;;;;;;;1.10;1.10;;;28.10;99.90;;;;;;5051347;28;20630;-62
2023/06/11 08:48:06;;;;;;;1.30;1.30;;;28.20;99.90;;;;;;5050764;28;20286;-65
2023/06/11 08:50:33;;;;;;;1.52;1.10;;;28.20;99.90;;;;;;5049829;28;20224;-64
2023/06/11 08:53:01;;;;;;;1.10;1.10;;;28.30;99.90;;;;;;5051151;28;20203;-61
2023/06/11 08:55:29;;;;;;;1.05;1.05;;;28.20;99.90;;;;;;5051266;28;20211;-63
2023/06/11 08:57:58;;;;;;;1.10;1.10;;;28.40;99.90;;;;;;5051910;28;20215;-64
2023/06/11 09:00:25;;;;;;;1.00;1.00;;;28.40;99.90;;;;;;5051171;28;20220;-64
2023/06/11 09:02:52;;;;;;;1.08;1.08;;;28.40;99.90;;;;;;5051292;28;20291;-64
2023/06/11 09:05:19;;;;;;;1.30;1.30;;;28.50;99.90;;;;;;5051690;28;20212;-63
2023/06/11 09:07:50;;;;;;;0.93;0.93;;;28.70;99.90;;;;;;5051435;28;20801;-64
2023/06/11 09:10:19;;;;;;;0.98;0.98;;;28.50;99.90;;;;;;5050898;28;20756;-63
2023/06/11 09:12:46;;;;;;;0.98;0.98;;;28.20;99.90;;;;;;5042975;28;20236;-63
2023/06/11 09:15:15;;;;;;;1.02;1.02;;;28.40;99.90;;;;;;5031253;28;20212;-63
2023/06/11 09:17:44;;;;;;;1.20;1.20;;;28.70;99.90;;;;;;5031085;28;20529;-63
2023/06/11 09:20:13;;;;;;;1.20;1.20;;;28.80;99.90;;;;;;5031101;28;20274;-64
2023/06/11 09:22:42;;;;;;;1.17;1.17;;;28.90;99.90;;;;;;5032237;28;20195;-64
2023/06/11 09:25:10;;;;;;;1.40;1.40;;;28.80;99.90;;;;;;5036884;28;20205;-63
2023/06/11 09:27:38;;;;;;;1.00;1.00;;;28.80;99.90;;;;;;5035511;28;20200;-63
2023/06/11 09:30:10;;;;;;;1.00;1.00;;;28.80;99.90;;;;;;5051114;28;20224;-63
2023/06/11 09:32:42;;;;;;;1.10;1.10;;;28.80;99.90;;;;;;5051312;28;20202;-63
2023/06/11 09:35:10;;;;;;;1.23;1.23;;;29.00;99.90;;;;;;5052756;28;20288;-64
2023/06/11 09:37:41;;;;;;;1.95;1.10;;;29.10;99.90;;;;;;5051046;28;20204;-64
2023/06/11 09:40:11;;;;;;;1.00;1.00;;;29.30;99.90;;;;;;5049607;28;20288;-63
2023/06/11 09:42:40;;;;;;;1.00;1.00;;;29.20;99.90;;;;;;5051157;28;20212;-63
2023/06/11 09:45:16;;;;;;;1.10;1.10;;;29.20;99.90;;;;;;5050639;28;20216;-63
2023/06/11 09:47:46;;;;;;;1.08;1.08;;;29.50;99.90;;;;;;5050315;28;20669;-62
2023/06/11 09:50:13;;;;;;;1.00;1.00;;;29.60;99.90;;;;;;5049867;28;20237;-63
2023/06/11 09:52:41;;;;;;;1.10;1.10;;;29.30;99.90;;;;;;5050231;28;20204;-63
2023/06/11 09:55:09;;;;;;;1.10;1.10;;;29.40;99.90;;;;;;5050728;28;20211;-62
2023/06/11 09:57:38;;;;;;;1.20;1.13;;;29.40;99.90;;;;;;5050363;28;20207;-64
2023/06/11 10:00:09;;;;;;;1.10;1.10;;;29.40;99.90;;;;;;5050201;28;20220;-64
2023/06/11 10:02:37;;;;;;;1.10;1.10;;;29.30;99.90;;;;;;5037363;28;20188;-64
2023/06/11 10:05:07;;;;;;;1.00;1.00;;;29.30;99.90;;;;;;5054375;28;20199;-63
2023/06/11 10:07:39;;;;;;;1.08;1.08;;;29.60;99.90;;;;;;5054720;28;20624;-62
2023/06/11 10:10:09;;;;;;;1.20;1.20;;;29.90;99.90;;;;;;5054057;28;20267;-62
2023/06/11 10:12:36;;;;;;;1.20;1.20;;;30.00;99.90;;;;;;5053931;28;20204;-62
2023/06/11 10:15:05;;;;;;;1.00;1.00;;;29.60;99.90;;;;;;5054574;28;20211;-61
2023/06/11 10:17:32;;;;;;;1.02;1.02;;;29.40;99.90;;;;;;5054529;28;20235;-61
2023/06/11 10:19:59;;;;;;;1.15;1.15;;;29.80;99.90;;;;;;5054057;28;20224;-62
2023/06/11 10:22:34;;;;;;;1.10;1.10;;;29.80;99.90;;;;;;5054238;28;20666;-61
2023/06/11 10:25:02;;;;;;;1.20;1.10;;;30.00;99.90;;;;;;5054413;28;20282;-63
2023/06/11 10:27:37;;;;;;;1.33;1.30;;;30.10;99.90;;;;;;5053880;28;20208;-63
2023/06/11 10:30:06;;;;;;;1.10;1.10;;;30.20;99.90;;;;;;5053459;28;20238;-65
2023/06/11 10:32:33;;;;;;;1.10;1.10;;;30.10;99.90;;;;;;5054046;28;20230;-62
2023/06/11 10:35:03;;;;;;;1.10;1.10;;;30.20;99.90;;;;;;5053903;28;20204;-64
2023/06/11 10:37:37;;;;;;;1.05;1.05;;;30.30;99.90;;;;;;5053966;28;20216;-62
2023/06/11 10:40:07;;;;;;;0.90;0.90;;;30.20;99.90;;;;;;5053801;28;20231;-64
2023/06/11 10:42:37;;;;;;;1.08;1.08;;;30.20;99.90;;;;;;5053489;28;20212;-65
2023/06/11 10:45:07;;;;;;;1.30;1.20;;;30.30;99.90;;;;;;5053857;28;20206;-63
2023/06/11 10:47:43;;;;;;;1.40;1.30;;;30.40;99.90;;;;;;5054066;28;20823;-63
2023/06/11 10:50:11;;;;;;;1.10;1.10;;;30.40;99.90;;;;;;5052539;28;20243;-64
2023/06/11 10:52:51;;;;;;;0.90;0.90;;;30.50;99.90;;;;;;5053667;28;20548;-64
2023/06/11 10:55:20;;;;;;;1.00;1.00;;;30.60;99.90;;;;;;5053878;28;20236;-64
2023/06/11 10:57:47;;;;;;;1.10;1.10;;;30.60;99.90;;;;;;5057481;28;20208;-64
2023/06/11 11:00:14;;;;;;;1.00;1.00;;;30.40;99.90;;;;;;5059790;28;20287;-64
2023/06/11 11:02:41;;;;;;;1.20;1.20;;;30.60;99.90;;;;;;5054696;28;20207;-64
2023/06/11 11:05:10;;;;;;;1.10;1.10;;;30.60;99.90;;;;;;5053816;28;20210;-65
2023/06/11 11:07:37;;;;;;;1.10;1.10;;;30.70;99.90;;;;;;5053790;28;20211;-63
2023/06/11 11:10:07;;;;;;;1.23;1.20;;;30.90;99.90;;;;;;5053002;28;20223;-64
2023/06/11 11:12:42;;;;;;;1.42;1.33;;;30.90;99.90;;;;;;5052988;28;20202;-64
2023/06/11 11:15:12;;;;;;;1.10;1.05;;;30.80;99.90;;;;;;5053486;28;20207;-65
2023/06/11 11:17:40;;;;;;;1.00;1.00;;;30.60;99.90;;;;;;5053521;28;20211;-63
2023/06/11 11:20:08;;;;;;;1.50;1.50;;;30.50;99.90;;;;;;5052725;28;20223;-63
2023/06/11 11:22:35;;;;;;;1.10;1.10;;;30.50;99.90;;;;;;5052928;28;20674;-64
2023/06/11 11:25:03;;;;;;;1.00;1.00;;;30.20;99.90;;;;;;5053190;28;20210;-63
2023/06/11 11:27:32;;;;;;;1.20;1.20;;;30.50;99.90;;;;;;5053137;28;20212;-63
2023/06/11 11:30:01;;;;;;;1.30;1.20;;;30.70;99.90;;;;;;5053063;28;20224;-63
2023/06/11 11:32:30;;;;;;;1.20;1.10;;;31.00;99.90;;;;;;5052859;28;20224;-63
2023/06/11 11:34:57;;;;;;;0.98;0.98;;;31.00;99.90;;;;;;5052891;28;20215;-63
2023/06/11 11:37:24;;;;;;;1.10;1.10;;;30.80;99.90;;;;;;5053124;28;20199;-63
2023/06/11 11:39:53;;;;;;;1.08;1.02;;;31.00;99.90;;;;;;5052531;28;20224;-63
2023/06/11 11:42:20;;;;;;;1.00;1.00;;;30.90;99.90;;;;;;5051479;28;20200;-63
2023/06/11 11:44:51;;;;;;;1.10;1.10;;;30.80;99.90;;;;;;5052761;28;20592;-63
2023/06/11 11:47:20;;;;;;;1.10;1.10;;;31.00;99.90;;;;;;5052790;28;20666;-63
2023/06/11 11:49:55;;;;;;;1.15;1.10;;;31.20;99.90;;;;;;5052272;28;20227;-63
2023/06/11 11:52:23;;;;;;;1.10;1.10;;;31.20;99.90;;;;;;5052432;28;20233;-63
2023/06/11 11:54:50;;;;;;;1.10;1.10;;;31.20;99.90;;;;;;5052700;28;20204;-64
2023/06/11 11:57:20;;;;;;;1.10;1.10;;;31.10;99.90;;;;;;5052634;28;20203;-62
2023/06/11 11:59:53;;;;;;;1.00;1.00;;;31.40;99.90;;;;;;5052418;28;20236;-62
2023/06/11 12:02:27;;;;;;;1.00;1.00;;;31.20;99.90;;;;;;5052677;28;20184;-63
2023/06/11 12:04:59;;;;;;;1.20;1.10;;;31.10;99.90;;;;;;5052314;28;20200;-63
2023/06/11 12:07:26;;;;;;;1.08;1.08;;;31.30;99.90;;;;;;5052255;28;20188;-63
2023/06/11 12:09:53;;;;;;;1.00;1.00;;;31.40;99.90;;;;;;5051753;28;20232;-64
2023/06/11 12:12:20;;;;;;;1.10;1.10;;;31.50;99.90;;;;;;5052234;28;20226;-62
2023/06/11 12:14:48;;;;;;;1.00;1.00;;;31.40;99.90;;;;;;5052322;28;20208;-62
2023/06/11 12:17:15;;;;;;;1.05;1.05;;;31.40;99.90;;;;;;5051681;28;20206;-62
2023/06/11 12:19:42;;;;;;;1.13;1.10;;;31.40;99.60;;;;;;5052125;28;20631;-62
2023/06/11 12:22:08;;;;;;;0.90;0.90;;;31.50;99.80;;;;;;5052190;28;20210;-62
2023/06/11 12:24:36;;;;;;;1.17;1.17;;;31.60;98.90;;;;;;5052210;28;20203;-65
2023/06/11 12:27:03;;;;;;;1.20;1.20;;;31.40;98.30;;;;;;5053789;28;20261;-64
2023/06/11 12:29:29;;;;;;;1.13;1.10;;;31.40;98.00;;;;;;5051671;28;20208;-64
2023/06/11 12:31:58;;;;;;;1.00;1.00;;;31.40;98.00;;;;;;5053162;28;20266;-64
2023/06/11 12:34:25;;;;;;;1.20;1.20;;;31.50;98.30;;;;;;5055543;28;20246;-64
2023/06/11 12:36:51;;;;;;;1.00;1.00;;;31.60;97.80;;;;;;5051938;28;20261;-64
2023/06/11 12:39:18;;;;;;;1.20;1.10;;;31.60;98.00;;;;;;5051393;28;20268;-64
2023/06/11 12:41:46;;;;;;;1.00;1.00;;;31.60;97.60;;;;;;5052090;28;20310;-64
2023/06/11 12:44:15;;;;;;;0.90;0.90;;;31.80;97.90;;;;;;5051849;28;20576;-64
2023/06/11 12:46:42;;;;;;;1.20;1.20;;;31.90;97.90;;;;;;5051619;28;20200;-63
2023/06/11 12:49:10;;;;;;;1.00;0.95;;;31.90;96.60;;;;;;5051284;28;20214;-62
2023/06/11 12:51:38;;;;;;;1.10;1.10;;;31.90;96.10;;;;;;5051337;28;20224;-65
2023/06/11 12:54:05;;;;;;;1.20;1.10;;;31.80;95.90;;;;;;5052355;28;20295;-64